sensor_id;sensor_type;location;lat;lon;timestamp;pressure;altitude;pressure_sealevel;temperature;humidity
47809;BME280;33573;38.790;-77.084;2023-07-13T00:00:04;101038.62;;;26.02;30.95
47809;BME280;33573;38.790;-77.084;2023-07-13T00:02:29;101036.78;;;25.93;31.21
47809;BME280;33573;38.790;-77.084;2023-07-13T00:04:54;101032.08;;;26.30;30.87
47809;BME280;33573;38.790;-77.084;2023-07-13T00:07:20;101031.41;;;26.16;31.19
47809;BME280;33573;38.790;-77.084;2023-07-13T00:09:45;101030.27;;;26.41;31.03
47809;BME280;33573;38.790;-77.084;2023-07-13T00:12:23;101029.39;;;25.93;31.42
47809;BME280;33573;38.790;-77.084;2023-07-13T00:14:36;101029.66;;;26.09;31.33
47809;BME280;33573;38.790;-77.084;2023-07-13T00:17:01;101026.28;;;25.98;31.85
47809;BME280;33573;38.790;-77.084;2023-07-13T00:19:27;101026.58;;;25.47;31.09
47809;BME280;33573;38.790;-77.084;2023-07-13T00:21:52;101026.02;;;25.47;30.62
47809;BME280;33573;38.790;-77.084;2023-07-13T00:24:18;101031.68;;;25.94;30.65
47809;BME280;33573;38.790;-77.084;2023-07-13T00:26:43;101031.57;;;25.99;30.95
47809;BME280;33573;38.790;-77.084;2023-07-13T00:29:08;101029.61;;;25.86;31.20
47809;BME280;33573;38.790;-77.084;2023-07-13T00:31:34;101027.13;;;25.91;31.29
47809;BME280;33573;38.790;-77.084;2023-07-13T00:33:59;101028.84;;;25.96;31.23
47809;BME280;33573;38.790;-77.084;2023-07-13T00:36:25;101030.08;;;26.06;31.18
47809;BME280;33573;38.790;-77.084;2023-07-13T00:38:50;101028.01;;;25.88;31.47
47809;BME280;33573;38.790;-77.084;2023-07-13T00:41:15;101027.27;;;25.65;31.55
47809;BME280;33573;38.790;-77.084;2023-07-13T00:43:41;101025.63;;;25.97;31.58
47809;BME280;33573;38.790;-77.084;2023-07-13T00:46:15;101022.79;;;25.72;31.66
47809;BME280;33573;38.790;-77.084;2023-07-13T00:48:34;101022.58;;;25.39;30.95
47809;BME280;33573;38.790;-77.084;2023-07-13T00:50:59;101023.53;;;25.33;30.37
47809;BME280;33573;38.790;-77.084;2023-07-13T00:53:25;101027.57;;;25.36;30.15
47809;BME280;33573;38.790;-77.084;2023-07-13T00:55:49;101027.47;;;25.71;30.96
47809;BME280;33573;38.790;-77.084;2023-07-13T00:58:13;101027.05;;;25.78;30.96
47809;BME280;33573;38.790;-77.084;2023-07-13T01:00:40;101026.54;;;25.72;31.05
47809;BME280;33573;38.790;-77.084;2023-07-13T01:03:05;101024.81;;;25.45;31.13
47809;BME280;33573;38.790;-77.084;2023-07-13T01:05:31;101023.90;;;25.72;31.14
47809;BME280;33573;38.790;-77.084;2023-07-13T01:07:55;101025.53;;;25.24;30.21
47809;BME280;33573;38.790;-77.084;2023-07-13T01:10:22;101024.58;;;25.22;29.51
47809;BME280;33573;38.790;-77.084;2023-07-13T01:12:46;101024.20;;;25.01;29.07
47809;BME280;33573;38.790;-77.084;2023-07-13T01:17:37;101028.42;;;24.65;28.71
47809;BME280;33573;38.790;-77.084;2023-07-13T01:20:03;101032.64;;;24.28;28.27
47809;BME280;33573;38.790;-77.084;2023-07-13T01:22:28;101033.23;;;24.27;28.31
47809;BME280;33573;38.790;-77.084;2023-07-13T01:24:54;101033.35;;;24.49;28.05
47809;BME280;33573;38.790;-77.084;2023-07-13T01:27:24;101032.59;;;24.37;28.04
47809;BME280;33573;38.790;-77.084;2023-07-13T01:29:45;101027.64;;;24.26;27.94
47809;BME280;33573;38.790;-77.084;2023-07-13T01:32:11;101023.36;;;24.11;27.87
47809;BME280;33573;38.790;-77.084;2023-07-13T01:34:35;101027.80;;;24.07;27.80
47809;BME280;33573;38.790;-77.084;2023-07-13T01:37:00;101031.10;;;24.06;27.47
47809;BME280;33573;38.790;-77.084;2023-07-13T01:39:26;101035.35;;;23.98;27.45
47809;BME280;33573;38.790;-77.084;2023-07-13T01:41:51;101038.09;;;23.85;27.70
47809;BME280;33573;38.790;-77.084;2023-07-13T01:44:17;101038.95;;;23.81;27.26
47809;BME280;33573;38.790;-77.084;2023-07-13T01:46:42;101040.41;;;23.82;27.13
47809;BME280;33573;38.790;-77.084;2023-07-13T01:49:07;101040.02;;;23.94;27.15
47809;BME280;33573;38.790;-77.084;2023-07-13T01:51:33;101041.16;;;23.74;27.03
47809;BME280;33573;38.790;-77.084;2023-07-13T01:53:58;101048.17;;;23.64;26.96
47809;BME280;33573;38.790;-77.084;2023-07-13T01:56:24;101051.31;;;24.00;27.11
47809;BME280;33573;38.790;-77.084;2023-07-13T01:58:49;101050.41;;;23.93;26.68
47809;BME280;33573;38.790;-77.084;2023-07-13T02:01:15;101046.97;;;23.58;26.69
47809;BME280;33573;38.790;-77.084;2023-07-13T02:03:40;101048.20;;;23.86;26.60
47809;BME280;33573;38.790;-77.084;2023-07-13T02:06:05;101054.44;;;23.80;26.72
47809;BME280;33573;38.790;-77.084;2023-07-13T02:08:32;101058.50;;;23.82;26.39
47809;BME280;33573;38.790;-77.084;2023-07-13T02:10:56;101056.76;;;23.78;26.68
47809;BME280;33573;38.790;-77.084;2023-07-13T02:13:22;101057.22;;;23.38;26.46
47809;BME280;33573;38.790;-77.084;2023-07-13T02:15:50;101054.85;;;23.36;26.45
47809;BME280;33573;38.790;-77.084;2023-07-13T02:18:12;101051.33;;;23.33;26.58
47809;BME280;33573;38.790;-77.084;2023-07-13T02:20:38;101055.53;;;23.57;26.42
47809;BME280;33573;38.790;-77.084;2023-07-13T02:23:03;101057.49;;;24.74;26.17
47809;BME280;33573;38.790;-77.084;2023-07-13T02:25:28;101061.52;;;24.98;25.73
47809;BME280;33573;38.790;-77.084;2023-07-13T02:27:54;101066.57;;;24.15;26.35
47809;BME280;33573;38.790;-77.084;2023-07-13T02:30:19;101067.98;;;23.89;26.51
47809;BME280;33573;38.790;-77.084;2023-07-13T02:32:44;101071.97;;;23.69;26.60
47809;BME280;33573;38.790;-77.084;2023-07-13T02:35:10;101071.35;;;23.55;26.56
47809;BME280;33573;38.790;-77.084;2023-07-13T02:37:35;101074.58;;;23.38;26.38
47809;BME280;33573;38.790;-77.084;2023-07-13T02:40:00;101078.19;;;24.42;25.97
47809;BME280;33573;38.790;-77.084;2023-07-13T02:42:26;101080.47;;;24.69;25.85
47809;BME280;33573;38.790;-77.084;2023-07-13T02:44:51;101083.06;;;24.96;25.62
47809;BME280;33573;38.790;-77.084;2023-07-13T02:47:16;101086.63;;;25.07;25.61
47809;BME280;33573;38.790;-77.084;2023-07-13T02:49:42;101083.35;;;23.97;26.67
47809;BME280;33573;38.790;-77.084;2023-07-13T02:52:07;101081.68;;;24.11;26.38
47809;BME280;33573;38.790;-77.084;2023-07-13T02:54:33;101081.41;;;24.38;25.84
47809;BME280;33573;38.790;-77.084;2023-07-13T02:56:58;101080.80;;;25.16;25.47
47809;BME280;33573;38.790;-77.084;2023-07-13T02:59:24;101085.48;;;25.13;25.88
47809;BME280;33573;38.790;-77.084;2023-07-13T03:01:49;101087.65;;;25.18;26.24
47809;BME280;33573;38.790;-77.084;2023-07-13T03:04:15;101086.98;;;25.00;26.57
47809;BME280;33573;38.790;-77.084;2023-07-13T03:06:40;101082.59;;;24.85;26.84
47809;BME280;33573;38.790;-77.084;2023-07-13T03:09:05;101082.39;;;24.67;27.36
47809;BME280;33573;38.790;-77.084;2023-07-13T03:11:31;101083.97;;;24.79;27.27
47809;BME280;33573;38.790;-77.084;2023-07-13T03:13:57;101086.44;;;24.91;27.07
47809;BME280;33573;38.790;-77.084;2023-07-13T03:16:22;101086.54;;;24.83;26.83
47809;BME280;33573;38.790;-77.084;2023-07-13T03:18:48;101083.29;;;24.72;26.39
47809;BME280;33573;38.790;-77.084;2023-07-13T03:21:13;101083.14;;;25.02;26.19
47809;BME280;33573;38.790;-77.084;2023-07-13T03:23:38;101080.35;;;24.93;26.38
47809;BME280;33573;38.790;-77.084;2023-07-13T03:26:06;101076.47;;;24.23;27.16
47809;BME280;33573;38.790;-77.084;2023-07-13T03:28:29;101072.61;;;24.35;27.51
47809;BME280;33573;38.790;-77.084;2023-07-13T03:31:00;101067.86;;;24.12;27.63
47809;BME280;33573;38.790;-77.084;2023-07-13T03:33:20;101065.43;;;24.31;27.71
47809;BME280;33573;38.790;-77.084;2023-07-13T03:35:45;101059.37;;;24.50;27.92
47809;BME280;33573;38.790;-77.084;2023-07-13T03:38:11;101055.03;;;23.98;28.35
47809;BME280;33573;38.790;-77.084;2023-07-13T03:40:36;101054.40;;;24.70;27.73
47809;BME280;33573;38.790;-77.084;2023-07-13T03:43:01;101051.11;;;24.54;27.06
47809;BME280;33573;38.790;-77.084;2023-07-13T03:45:27;101047.26;;;24.93;26.60
47809;BME280;33573;38.790;-77.084;2023-07-13T03:47:52;101048.91;;;23.97;27.35
47809;BME280;33573;38.790;-77.084;2023-07-13T03:50:18;101043.68;;;24.13;27.69
47809;BME280;33573;38.790;-77.084;2023-07-13T03:52:43;101043.34;;;24.12;27.96
47809;BME280;33573;38.790;-77.084;2023-07-13T03:55:09;101043.25;;;24.11;28.21
47809;BME280;33573;38.790;-77.084;2023-07-13T03:57:34;101041.26;;;23.87;28.38
47809;BME280;33573;38.790;-77.084;2023-07-13T03:59:59;101033.96;;;23.98;28.46
47809;BME280;33573;38.790;-77.084;2023-07-13T04:02:25;101029.59;;;23.94;28.66
47809;BME280;33573;38.790;-77.084;2023-07-13T04:04:50;101028.09;;;23.93;28.43
47809;BME280;33573;38.790;-77.084;2023-07-13T04:07:16;101021.54;;;24.66;27.45
47809;BME280;33573;38.790;-77.084;2023-07-13T04:09:41;101015.83;;;24.37;27.13
47809;BME280;33573;38.790;-77.084;2023-07-13T04:12:07;101012.00;;;24.15;27.46
47809;BME280;33573;38.790;-77.084;2023-07-13T04:14:32;101005.64;;;23.92;27.76
47809;BME280;33573;38.790;-77.084;2023-07-13T04:16:58;101001.22;;;23.77;28.02
47809;BME280;33573;38.790;-77.084;2023-07-13T04:19:24;101001.51;;;23.94;28.27
47809;BME280;33573;38.790;-77.084;2023-07-13T04:21:48;100998.18;;;24.04;28.41
47809;BME280;33573;38.790;-77.084;2023-07-13T04:24:14;100993.38;;;23.95;28.43
47809;BME280;33573;38.790;-77.084;2023-07-13T04:26:39;100988.08;;;24.10;28.62
47809;BME280;33573;38.790;-77.084;2023-07-13T04:29:05;100987.48;;;24.14;28.70
47809;BME280;33573;38.790;-77.084;2023-07-13T04:31:31;100985.49;;;23.84;28.95
47809;BME280;33573;38.790;-77.084;2023-07-13T04:33:56;100983.56;;;23.86;29.02
47809;BME280;33573;38.790;-77.084;2023-07-13T04:36:21;100984.13;;;23.77;29.03
47809;BME280;33573;38.790;-77.084;2023-07-13T04:38:47;100989.52;;;24.05;28.05
47809;BME280;33573;38.790;-77.084;2023-07-13T04:41:13;100991.63;;;23.74;28.13
47809;BME280;33573;38.790;-77.084;2023-07-13T04:43:37;100989.85;;;23.88;28.15
47809;BME280;33573;38.790;-77.084;2023-07-13T04:46:05;100989.60;;;23.57;28.44
47809;BME280;33573;38.790;-77.084;2023-07-13T04:48:28;100989.58;;;23.95;28.66
47809;BME280;33573;38.790;-77.084;2023-07-13T04:50:56;100986.04;;;23.60;28.92
47809;BME280;33573;38.790;-77.084;2023-07-13T04:53:19;100986.94;;;23.67;28.98
47809;BME280;33573;38.790;-77.084;2023-07-13T04:55:45;100984.64;;;23.91;29.11
47809;BME280;33573;38.790;-77.084;2023-07-13T04:58:10;100988.06;;;23.99;29.14
47809;BME280;33573;38.790;-77.084;2023-07-13T05:00:35;100981.27;;;23.78;29.15
47809;BME280;33573;38.790;-77.084;2023-07-13T05:03:02;100976.88;;;24.10;29.17
47809;BME280;33573;38.790;-77.084;2023-07-13T05:05:27;100966.94;;;23.96;29.20
47809;BME280;33573;38.790;-77.084;2023-07-13T05:07:52;100966.15;;;24.30;29.12
47809;BME280;33573;38.790;-77.084;2023-07-13T05:10:17;100972.15;;;24.03;29.51
47809;BME280;33573;38.790;-77.084;2023-07-13T05:12:43;100975.15;;;23.53;29.45
47809;BME280;33573;38.790;-77.084;2023-07-13T05:15:09;100972.86;;;23.58;28.95
47809;BME280;33573;38.790;-77.084;2023-07-13T05:17:34;100971.38;;;23.66;28.61
47809;BME280;33573;38.790;-77.084;2023-07-13T05:19:59;100970.98;;;23.69;28.85
47809;BME280;33573;38.790;-77.084;2023-07-13T05:22:24;100970.24;;;23.80;28.80
47809;BME280;33573;38.790;-77.084;2023-07-13T05:24:50;100965.49;;;23.77;29.05
47809;BME280;33573;38.790;-77.084;2023-07-13T05:27:15;100961.08;;;23.88;29.15
47809;BME280;33573;38.790;-77.084;2023-07-13T05:29:40;100963.10;;;23.88;29.34
47809;BME280;33573;38.790;-77.084;2023-07-13T05:32:06;100960.59;;;23.96;29.41
47809;BME280;33573;38.790;-77.084;2023-07-13T05:34:31;100955.19;;;24.11;29.33
47809;BME280;33573;38.790;-77.084;2023-07-13T05:36:57;100952.58;;;24.04;29.53
47809;BME280;33573;38.790;-77.084;2023-07-13T05:39:22;100952.92;;;24.05;29.61
47809;BME280;33573;38.790;-77.084;2023-07-13T05:41:48;100952.69;;;23.77;29.87
47809;BME280;33573;38.790;-77.084;2023-07-13T05:44:13;100950.22;;;24.01;29.71
47809;BME280;33573;38.790;-77.084;2023-07-13T05:46:38;100948.86;;;24.45;29.57
47809;BME280;33573;38.790;-77.084;2023-07-13T05:49:04;100949.71;;;24.19;29.73
47809;BME280;33573;38.790;-77.084;2023-07-13T05:51:29;100948.26;;;23.77;30.04
47809;BME280;33573;38.790;-77.084;2023-07-13T05:53:55;100946.59;;;23.81;29.73
47809;BME280;33573;38.790;-77.084;2023-07-13T05:56:20;100941.76;;;23.82;29.19
47809;BME280;33573;38.790;-77.084;2023-07-13T05:58:47;100928.07;;;23.73;29.22
47809;BME280;33573;38.790;-77.084;2023-07-13T06:01:13;100920.25;;;23.77;29.34
47809;BME280;33573;38.790;-77.084;2023-07-13T06:03:37;100919.52;;;23.73;29.61
47809;BME280;33573;38.790;-77.084;2023-07-13T06:06:02;100925.50;;;23.68;29.57
47809;BME280;33573;38.790;-77.084;2023-07-13T06:08:28;100929.74;;;24.09;29.57
47809;BME280;33573;38.790;-77.084;2023-07-13T06:10:53;100929.23;;;24.08;29.72
47809;BME280;33573;38.790;-77.084;2023-07-13T06:13:18;100925.42;;;24.07;29.84
47809;BME280;33573;38.790;-77.084;2023-07-13T06:15:48;100930.16;;;23.54;30.29
47809;BME280;33573;38.790;-77.084;2023-07-13T06:18:09;100923.45;;;23.92;29.95
47809;BME280;33573;38.790;-77.084;2023-07-13T06:20:35;100920.46;;;24.00;30.20
47809;BME280;33573;38.790;-77.084;2023-07-13T06:23:01;100914.54;;;23.78;30.23
47809;BME280;33573;38.790;-77.084;2023-07-13T06:25:26;100911.63;;;24.12;29.92
47809;BME280;33573;38.790;-77.084;2023-07-13T06:27:51;100914.62;;;23.99;30.16
47809;BME280;33573;38.790;-77.084;2023-07-13T06:30:16;100913.93;;;24.33;30.06
47809;BME280;33573;38.790;-77.084;2023-07-13T06:32:42;100914.87;;;23.96;30.30
47809;BME280;33573;38.790;-77.084;2023-07-13T06:35:07;100908.17;;;23.56;30.25
47809;BME280;33573;38.790;-77.084;2023-07-13T06:37:33;100904.06;;;23.58;30.05
47809;BME280;33573;38.790;-77.084;2023-07-13T06:39:58;100904.16;;;23.55;29.63
47809;BME280;33573;38.790;-77.084;2023-07-13T06:42:24;100899.07;;;23.45;29.63
47809;BME280;33573;38.790;-77.084;2023-07-13T06:44:49;100901.41;;;23.56;29.67
47809;BME280;33573;38.790;-77.084;2023-07-13T06:47:14;100899.48;;;23.86;29.80
47809;BME280;33573;38.790;-77.084;2023-07-13T06:49:40;100899.11;;;23.58;30.00
47809;BME280;33573;38.790;-77.084;2023-07-13T06:52:06;100896.47;;;23.81;30.14
47809;BME280;33573;38.790;-77.084;2023-07-13T06:54:31;100893.82;;;23.85;30.17
47809;BME280;33573;38.790;-77.084;2023-07-13T06:56:56;100898.80;;;23.60;30.28
47809;BME280;33573;38.790;-77.084;2023-07-13T06:59:22;100901.39;;;24.05;30.17
47809;BME280;33573;38.790;-77.084;2023-07-13T07:01:47;100900.54;;;24.07;29.99
47809;BME280;33573;38.790;-77.084;2023-07-13T07:04:13;100898.82;;;24.00;30.10
47809;BME280;33573;38.790;-77.084;2023-07-13T07:06:38;100898.83;;;24.09;30.35
47809;BME280;33573;38.790;-77.084;2023-07-13T07:09:03;100900.14;;;23.84;30.45
47809;BME280;33573;38.790;-77.084;2023-07-13T07:11:29;100907.66;;;24.12;30.51
47809;BME280;33573;38.790;-77.084;2023-07-13T07:13:54;100909.56;;;23.99;30.73
47809;BME280;33573;38.790;-77.084;2023-07-13T07:16:20;100908.24;;;24.07;30.74
47809;BME280;33573;38.790;-77.084;2023-07-13T07:18:46;100905.62;;;24.10;30.83
47809;BME280;33573;38.790;-77.084;2023-07-13T07:21:11;100906.37;;;23.90;30.89
47809;BME280;33573;38.790;-77.084;2023-07-13T07:23:36;100903.51;;;23.97;31.10
47809;BME280;33573;38.790;-77.084;2023-07-13T07:26:01;100903.07;;;23.89;31.29
47809;BME280;33573;38.790;-77.084;2023-07-13T07:28:27;100905.19;;;24.14;30.99
47809;BME280;33573;38.790;-77.084;2023-07-13T07:30:54;100906.46;;;24.21;30.93
47809;BME280;33573;38.790;-77.084;2023-07-13T07:33:18;100903.49;;;23.61;31.01
47809;BME280;33573;38.790;-77.084;2023-07-13T07:35:44;100904.27;;;23.57;30.78
47809;BME280;33573;38.790;-77.084;2023-07-13T07:38:09;100908.55;;;23.55;30.20
47809;BME280;33573;38.790;-77.084;2023-07-13T07:40:37;100909.63;;;23.37;30.32
47809;BME280;33573;38.790;-77.084;2023-07-13T07:43:00;100903.22;;;23.60;30.29
47809;BME280;33573;38.790;-77.084;2023-07-13T07:45:27;100901.66;;;23.67;30.34
47809;BME280;33573;38.790;-77.084;2023-07-13T07:47:51;100902.01;;;23.58;30.61
47809;BME280;33573;38.790;-77.084;2023-07-13T07:50:16;100902.10;;;23.91;30.36
47809;BME280;33573;38.790;-77.084;2023-07-13T07:52:41;100902.28;;;23.90;30.47
47809;BME280;33573;38.790;-77.084;2023-07-13T07:55:08;100902.83;;;23.81;30.71
47809;BME280;33573;38.790;-77.084;2023-07-13T07:57:32;100906.35;;;23.72;30.95
47809;BME280;33573;38.790;-77.084;2023-07-13T07:59:58;100911.44;;;24.14;30.65
47809;BME280;33573;38.790;-77.084;2023-07-13T08:02:25;100913.28;;;23.82;30.80
47809;BME280;33573;38.790;-77.084;2023-07-13T08:04:49;100913.83;;;23.96;30.97
47809;BME280;33573;38.790;-77.084;2023-07-13T08:07:14;100910.94;;;23.80;31.18
47809;BME280;33573;38.790;-77.084;2023-07-13T08:09:40;100909.06;;;23.94;31.08
47809;BME280;33573;38.790;-77.084;2023-07-13T08:12:06;100917.90;;;23.89;31.17
47809;BME280;33573;38.790;-77.084;2023-07-13T08:14:30;100917.42;;;23.92;30.90
47809;BME280;33573;38.790;-77.084;2023-07-13T08:16:56;100917.95;;;23.78;31.15
47809;BME280;33573;38.790;-77.084;2023-07-13T08:19:21;100921.61;;;23.98;31.28
47809;BME280;33573;38.790;-77.084;2023-07-13T08:21:47;100926.89;;;24.26;31.27
47809;BME280;33573;38.790;-77.084;2023-07-13T08:24:12;100922.65;;;23.96;31.45
47809;BME280;33573;38.790;-77.084;2023-07-13T08:26:37;100922.54;;;24.06;31.32
47809;BME280;33573;38.790;-77.084;2023-07-13T08:29:03;100927.99;;;24.21;31.22
47809;BME280;33573;38.790;-77.084;2023-07-13T08:31:28;100932.79;;;24.02;31.50
47809;BME280;33573;38.790;-77.084;2023-07-13T08:33:53;100933.06;;;23.52;31.84
47809;BME280;33573;38.790;-77.084;2023-07-13T08:36:19;100931.85;;;24.14;31.45
47809;BME280;33573;38.790;-77.084;2023-07-13T08:38:44;100928.91;;;24.06;31.51
47809;BME280;33573;38.790;-77.084;2023-07-13T08:41:13;100929.64;;;24.11;31.58
47809;BME280;33573;38.790;-77.084;2023-07-13T08:43:36;100930.89;;;23.56;32.03
47809;BME280;33573;38.790;-77.084;2023-07-13T08:46:08;100924.75;;;24.10;31.62
47809;BME280;33573;38.790;-77.084;2023-07-13T08:48:27;100920.32;;;24.10;31.73
47809;BME280;33573;38.790;-77.084;2023-07-13T08:50:56;100923.43;;;24.06;31.80
47809;BME280;33573;38.790;-77.084;2023-07-13T08:53:17;100931.72;;;23.69;31.68
47809;BME280;33573;38.790;-77.084;2023-07-13T08:55:43;100929.05;;;23.41;31.26
47809;BME280;33573;38.790;-77.084;2023-07-13T08:58:12;100934.14;;;23.71;30.77
47809;BME280;33573;38.790;-77.084;2023-07-13T09:00:39;100931.83;;;23.63;30.94
47809;BME280;33573;38.790;-77.084;2023-07-13T09:03:00;100926.69;;;23.37;31.15
47809;BME280;33573;38.790;-77.084;2023-07-13T09:05:28;100915.55;;;23.80;31.04
47809;BME280;33573;38.790;-77.084;2023-07-13T09:08:06;100913.03;;;23.84;31.12
47809;BME280;33573;38.790;-77.084;2023-07-13T09:10:19;100913.21;;;23.58;31.30
47809;BME280;33573;38.790;-77.084;2023-07-13T09:12:49;100910.03;;;24.06;31.14
47809;BME280;33573;38.790;-77.084;2023-07-13T09:15:17;100905.76;;;23.87;31.40
47809;BME280;33573;38.790;-77.084;2023-07-13T09:17:36;100907.92;;;23.82;31.53
47809;BME280;33573;38.790;-77.084;2023-07-13T09:20:00;100903.49;;;24.03;31.35
47809;BME280;33573;38.790;-77.084;2023-07-13T09:22:24;100903.01;;;23.78;31.45
47809;BME280;33573;38.790;-77.084;2023-07-13T09:24:55;100901.32;;;23.84;31.68
47809;BME280;33573;38.790;-77.084;2023-07-13T09:27:15;100903.65;;;24.04;31.54
47809;BME280;33573;38.790;-77.084;2023-07-13T09:29:42;100902.47;;;23.74;31.66
47809;BME280;33573;38.790;-77.084;2023-07-13T09:32:07;100900.67;;;23.98;31.69
47809;BME280;33573;38.790;-77.084;2023-07-13T09:34:30;100906.46;;;24.01;31.71
47809;BME280;33573;38.790;-77.084;2023-07-13T09:36:55;100910.31;;;23.96;31.85
47809;BME280;33573;38.790;-77.084;2023-07-13T09:39:26;100911.03;;;23.67;32.22
47809;BME280;33573;38.790;-77.084;2023-07-13T09:41:51;100910.07;;;23.99;31.88
47809;BME280;33573;38.790;-77.084;2023-07-13T09:44:13;100914.23;;;23.75;31.89
47809;BME280;33573;38.790;-77.084;2023-07-13T09:46:37;100909.31;;;23.88;32.08
47809;BME280;33573;38.790;-77.084;2023-07-13T09:49:02;100906.36;;;23.98;32.08
47809;BME280;33573;38.790;-77.084;2023-07-13T09:51:28;100904.41;;;23.71;32.18
47809;BME280;33573;38.790;-77.084;2023-07-13T09:53:54;100899.71;;;24.15;31.96
47809;BME280;33573;38.790;-77.084;2023-07-13T09:56:21;100892.25;;;23.82;32.07
47809;BME280;33573;38.790;-77.084;2023-07-13T09:58:44;100890.18;;;23.80;32.47
47809;BME280;33573;38.790;-77.084;2023-07-13T10:01:09;100887.65;;;23.82;32.54
47809;BME280;33573;38.790;-77.084;2023-07-13T10:03:35;100884.03;;;23.64;32.64
47809;BME280;33573;38.790;-77.084;2023-07-13T10:06:10;100884.25;;;23.89;32.70
47809;BME280;33573;38.790;-77.084;2023-07-13T10:08:28;100887.54;;;23.89;32.50
47809;BME280;33573;38.790;-77.084;2023-07-13T10:10:58;100885.30;;;23.93;32.77
47809;BME280;33573;38.790;-77.084;2023-07-13T10:13:28;100886.52;;;23.90;32.84
47809;BME280;33573;38.790;-77.084;2023-07-13T10:15:42;100891.22;;;24.26;32.40
47809;BME280;33573;38.790;-77.084;2023-07-13T10:18:09;100889.61;;;24.03;32.52
47809;BME280;33573;38.790;-77.084;2023-07-13T10:20:33;100887.55;;;23.95;32.46
47809;BME280;33573;38.790;-77.084;2023-07-13T10:23:00;100886.46;;;23.85;32.86
47809;BME280;33573;38.790;-77.084;2023-07-13T10:25:25;100888.92;;;24.01;32.63
47809;BME280;33573;38.790;-77.084;2023-07-13T10:27:51;100892.41;;;23.98;32.64
47809;BME280;33573;38.790;-77.084;2023-07-13T10:30:19;100894.49;;;24.14;32.57
47809;BME280;33573;38.790;-77.084;2023-07-13T10:32:40;100896.13;;;24.01;32.43
47809;BME280;33573;38.790;-77.084;2023-07-13T10:35:10;100898.33;;;24.13;32.54
47809;BME280;33573;38.790;-77.084;2023-07-13T10:37:39;100908.01;;;24.24;32.44
47809;BME280;33573;38.790;-77.084;2023-07-13T10:39:57;100911.85;;;24.26;32.68
47809;BME280;33573;38.790;-77.084;2023-07-13T10:42:29;100908.32;;;24.01;33.05
47809;BME280;33573;38.790;-77.084;2023-07-13T10:44:48;100904.72;;;24.00;33.40
47809;BME280;33573;38.790;-77.084;2023-07-13T10:47:16;100908.86;;;23.74;33.52
47809;BME280;33573;38.790;-77.084;2023-07-13T10:49:40;100912.81;;;24.19;33.00
47809;BME280;33573;38.790;-77.084;2023-07-13T10:52:05;100913.53;;;24.25;33.45
47809;BME280;33573;38.790;-77.084;2023-07-13T10:54:32;100910.71;;;24.41;33.20
47809;BME280;33573;38.790;-77.084;2023-07-13T10:59:26;100908.15;;;23.92;34.08
47809;BME280;33573;38.790;-77.084;2023-07-13T11:01:51;100906.23;;;24.10;33.98
47809;BME280;33573;38.790;-77.084;2023-07-13T11:04:13;100905.20;;;24.22;33.99
47809;BME280;33573;38.790;-77.084;2023-07-13T11:06:38;100904.89;;;23.92;34.20
47809;BME280;33573;38.790;-77.084;2023-07-13T11:09:19;100905.58;;;24.06;34.05
47809;BME280;33573;38.790;-77.084;2023-07-13T11:11:36;100904.49;;;24.35;34.00
47809;BME280;33573;38.790;-77.084;2023-07-13T11:13:58;100904.10;;;24.10;34.16
47809;BME280;33573;38.790;-77.084;2023-07-13T11:18:46;100902.76;;;24.28;33.85
47809;BME280;33573;38.790;-77.084;2023-07-13T11:21:16;100904.63;;;24.20;34.53
47809;BME280;33573;38.790;-77.084;2023-07-13T11:23:41;100908.67;;;24.19;34.04
47809;BME280;33573;38.790;-77.084;2023-07-13T11:26:01;100911.59;;;24.27;33.79
47809;BME280;33573;38.790;-77.084;2023-07-13T11:28:30;100916.18;;;24.17;34.31
47809;BME280;33573;38.790;-77.084;2023-07-13T11:31:03;100921.04;;;24.18;34.34
47809;BME280;33573;38.790;-77.084;2023-07-13T11:33:19;100923.87;;;24.32;34.33
47809;BME280;33573;38.790;-77.084;2023-07-13T11:35:46;100926.36;;;24.41;34.06
47809;BME280;33573;38.790;-77.084;2023-07-13T11:38:13;100919.76;;;24.28;34.34
47809;BME280;33573;38.790;-77.084;2023-07-13T11:40:32;100924.88;;;24.47;34.46
47809;BME280;33573;38.790;-77.084;2023-07-13T11:43:00;100930.22;;;24.56;34.33
47809;BME280;33573;38.790;-77.084;2023-07-13T11:45:23;100921.62;;;24.24;34.50
47809;BME280;33573;38.790;-77.084;2023-07-13T11:50:20;100926.09;;;24.48;34.45
47809;BME280;33573;38.790;-77.084;2023-07-13T11:52:40;100929.83;;;24.34;34.81
47809;BME280;33573;38.790;-77.084;2023-07-13T11:55:13;100925.45;;;24.21;35.04
47809;BME280;33573;38.790;-77.084;2023-07-13T11:57:33;100921.44;;;24.41;34.57
47809;BME280;33573;38.790;-77.084;2023-07-13T11:59:56;100924.00;;;24.39;34.94
47809;BME280;33573;38.790;-77.084;2023-07-13T12:02:28;100923.31;;;24.73;34.90
47809;BME280;33573;38.790;-77.084;2023-07-13T12:04:47;100924.38;;;24.33;35.08
47809;BME280;33573;38.790;-77.084;2023-07-13T12:07:16;100924.20;;;24.73;34.36
47809;BME280;33573;38.790;-77.084;2023-07-13T12:09:38;100923.03;;;24.38;34.92
47809;BME280;33573;38.790;-77.084;2023-07-13T12:14:29;100916.65;;;24.82;35.06
47809;BME280;33573;38.790;-77.084;2023-07-13T12:16:55;100918.96;;;24.68;34.59
47809;BME280;33573;38.790;-77.084;2023-07-13T12:19:22;100923.15;;;24.39;34.74
47809;BME280;33573;38.790;-77.084;2023-07-13T12:21:46;100925.77;;;24.31;35.08
47809;BME280;33573;38.790;-77.084;2023-07-13T12:24:15;100926.10;;;24.40;34.32
47809;BME280;33573;38.790;-77.084;2023-07-13T12:26:36;100928.79;;;24.76;34.84
47809;BME280;33573;38.790;-77.084;2023-07-13T12:29:04;100933.60;;;24.44;35.57
47809;BME280;33573;38.790;-77.084;2023-07-13T12:31:34;100930.83;;;24.60;34.91